Pagrindinis puslapis
METAR-TAF:

METAR-TAF

Oro uostai :

Kajanis, Suomija

platuma: 64-17N, ilguma: 027-41E, Aukštis: 143 m

Dabartinis oras

Ataskaita buvo paskelbta 25 minutes, ne 18:20 UTC
Vėjas 9 kt iš Rytų
Temperatūra -8°C
Drėgmė 92%
Slėgis 1006 hPa
Matomumas 10 km arba daugiau
Apsiniaukę ne aukštis 600 ft

METAR: EFKI 291820Z AUTO 09009KT 9999 OVC006 M08/M09 Q1006

Laikas: 20:45 (18:45 UTC)

Prognozė

Ataskaita buvo paskelbta 1 valandą ir 6 minutes, ne 17:39 UTC
Prognozė galioja nuo 29 metu 18 UTC su 29 metu 22 UTC
Vėjas 10 kt iš Rytų
Matomumas 10 km arba daugiau
Su prošvaistėmis ne aukštis 800 ft
Laikinai
nuo 29 metu 18 UTC su 29 metu 22 UTC
Matomumas: 6000 m
Su prošvaistėmis ne aukštis 1000 ft
sniegas

TAF: EFKI 291739Z 2918/2922 10010KT 9999 BKN008 TEMPO 2918/2922 6000 -SN BKN010

Orai ataskaitas ir orų prognozės (METAR, TAF).

turimą stotys yra geltonos ir raudonos taškus žemėlapyje.

Perkelti pele per norėdami pamatyti stoties vardą.

Tada spustelėkite, norėdami matyti oro stebėjimo ir prognozės.

Norėdami pakeisti žemėlapį: spustelėkite ant žalios mygtukų su juodo kryžiaus žemyn,; žalią mygtuką su brūkšneliu, jei norite nutolinti; arba žalių rodyklių gretimoms žemėlapius.


METAR-TAF: